Collinsville, Virginia
Current Conditions -  °F | °C
As of 1:35 AM on Thursday 27 Nov 2014 (Local Time) from KMTV Reporting Station
Overcast Overcast  
Wind Chill: 38°   Ceiling: 400
Heat Index: 38°   Visibility: 7mi
Dew Point: 38°   Wind: 0mph
Humidity: 100%   Direction: NA
Pressure: 30.05"   Gusts: NA
Location:  36.72°N, 79.91°W
Report Text: KMTV 270635Z AUTO 00000KT 7SM OVC004 03/03 A3005 RMK AO2 T00330033
Loading
Personal Weather Stations






























Interactive Weather Map New forecast layout! Learn more

10-Day Weather Forecast

Advertisements
Track Severe Weather on mobile